logo
Search for airport 
image banner adimage banner adimage banner ad
image banner ad

LSVQ - Monte Rosa

Located in , Switzerland

ICAO - , IATA -

Data provided by Airmate  

General information

Coordinates: N45°56'28" E7°51'4"
Elevation is 13431 feet MSL.
 
View others Airports in Valais

Operational data

Special qualification required
Current time UTC:
Current local time:
Weather at : LIMW - Aosta ( 44 km )
TAF: TAF LIMW 201700Z 2018/2103 29015KT 9999 FEW080 BECMG 2018/2020 VRB05KT
View NOTAMs / SUP AIP / TFR affecting this airport [VIEW]
Communications frequencies: [VIEW]

Runways:

Airport contact information

Address: Switzerland

Satellite view of LSVQ